Mekong — WDE6357 — position and weather

sailwx.info

Track history (hours):
 
Tides and Currents Weather Stations Pressure Air Temp Water Temp Dewpoint Dewpoint Depression Visibility Wind Speed Wind Dir Waves Ship Positions

Mekong

Owner: Rubys LLC, North Plainfield, NJ. More information available from US FCC via Universal Licensing System and Coast Guard Vessel Documentation Center.

Last reported at 2017-Aug-15 06:09 UTC. Time now 2017-Sep-22 18:53 UTC.
Position N 38°60' W 073°32'.
Warning: this ship's position is 38 days out of date.

Length 26 m.

Type: Pollution control. MMSI: 367379210.

Date/timePositionNaut miles runAvg speedWind from/ knotsBaromVisibWave heightAir tempDewpointWater temp
2017-Aug-15 06:09N 38°60' W 073°32'1 5.2
2017-Aug-15 05:59N 38°59' W 073°32'3 4.7
2017-Aug-15 05:27N 38°57' W 073°30'1 1.0
2017-Aug-15 04:14N 38°58' W 073°30'2 5.0
2017-Aug-15 03:54N 38°56' W 073°30'2 5.1
2017-Aug-15 03:29N 38°58' W 073°31'  
2017-Aug-12 02:35N 38°55' W 073°34'0 5.1
2017-Aug-12 02:30N 38°55' W 073°34'2 4.9
2017-Aug-12 02:00N 38°55' W 073°30'3 1.3
2017-Aug-11 23:46N 38°55' W 073°34'1 4.6
2017-Aug-11 23:27N 38°55' W 073°32'3 4.9
2017-Aug-11 22:53N 38°55' W 073°29'2 0.5
2017-Aug-11 18:20N 38°55' W 073°32'4 3.9
2017-Aug-11 17:13N 38°57' W 073°26'1 5.2
2017-Aug-11 17:00N 38°58' W 073°26'25 0.8
2017-Aug-10 09:35N 39°17' W 073°05'1 5.4
2017-Aug-10 09:29N 39°17' W 073°05'7 4.1
2017-Aug-10 07:51N 39°22' W 072°59'  
Track history (hours):
 
Tides and Currents Weather Stations Pressure Air Temp Water Temp Dewpoint Dewpoint Depression Visibility Wind Speed Wind Dir Waves Ship Positions

Mekong

Owner: Rubys LLC, North Plainfield, NJ. More information available from US FCC via Universal Licensing System and Coast Guard Vessel Documentation Center.

Last reported at 2017-Aug-15 06:09 UTC. Time now 2017-Sep-22 18:53 UTC.
Position N 38°60' W 073°32'.
Warning: this ship's position is 38 days out of date.

Length 26 m.

Type: Pollution control. MMSI: 367379210.

Date/timePositionNaut miles runAvg speedWind from/ knotsBaromVisibWave heightAir tempDewpointWater temp
2017-Aug-15 06:09N 38°60' W 073°32'1 5.2
2017-Aug-15 05:59N 38°59' W 073°32'3 4.7
2017-Aug-15 05:27N 38°57' W 073°30'1 1.0
2017-Aug-15 04:14N 38°58' W 073°30'2 5.0
2017-Aug-15 03:54N 38°56' W 073°30'2 5.1
2017-Aug-15 03:29N 38°58' W 073°31'  
2017-Aug-12 02:35N 38°55' W 073°34'0 5.1
2017-Aug-12 02:30N 38°55' W 073°34'2 4.9
2017-Aug-12 02:00N 38°55' W 073°30'3 1.3
2017-Aug-11 23:46N 38°55' W 073°34'1 4.6
2017-Aug-11 23:27N 38°55' W 073°32'3 4.9
2017-Aug-11 22:53N 38°55' W 073°29'2 0.5
2017-Aug-11 18:20N 38°55' W 073°32'4 3.9
2017-Aug-11 17:13N 38°57' W 073°26'1 5.2
2017-Aug-11 17:00N 38°58' W 073°26'25 0.8
2017-Aug-10 09:35N 39°17' W 073°05'1 5.4
2017-Aug-10 09:29N 39°17' W 073°05'7 4.1
2017-Aug-10 07:51N 39°22' W 072°59'  

Dump ship's entire track history